Timeline UpdatesTrip UpdatesNews PostsPvt PostsTravel TipsAdmin PostsConv PostsFollowed PostsChat RequestsBlog PostsPNR Posts

Disclaimer
Search
 
 
Sun Sep 21, 2014 01:30:39 ISTHomeTrainsΣChainsAtlasPNRForumGalleryNewsFAQTripsMembersLoginFeedback
No Recent News for this Train
Other Trains in the News **new
Latest...
.
Sat Jan 26, 2013 (03:08PM)
⇐ Return Journey: Train# 59440

59439/Mumbai Central-Ahmedabad Passenger

Time-Table HAS CHANGED.
Sep 02 (12:22AM)
Change Departure Station:
Change Arrival Station:
Post a Train Travel TipPost a Train Travel Tip **new
Post a Comment/Question/Picture/VideoPost a Comment/Question/Picture/Video
Pantry/Catering
✕ NO Pantry Car
✕ NO Catering
RSA - Rake Sharing
59439 and 59442 share rakes.
Rake/Coach Composition
LOCO-SLR-GEN-GEN-GEN-S3-S2-S1-LD-GEN-GEN-GEN-GEN-GEN-GEN-GEN-SLR
Loco
BL WCAM-1/BRC WAG-5A
News    PNR    Forum    Time-Table    Availability    Fare Chart    Map    Arr/Dep History    Trips    Gallery    ΣChains    X/O    Timeline    
Travel Time: 5h 12m    21 halts    Distance: 188 km    Avg Speed: 36 km/hr
Type: Passenger
Zone: WR/Western
Departs @ 12:15
Platform# 4
SMTWTFS
Mumbai Central/BCT 
Arrives @ 17:27
Platform# ???
SMTWTFS
Atul/ATUL 

21 halts. 42 intermediate Stations between Mumbai Central and Atul

Show ALL intermediate Stations  Show Old Time-Table

#CodeStation NameX/OArrivesAvgDepartsAvgHaltPFDay#KmSpeedElevZoneAddress
1BCTMumbai Central (9)»  -12:15-410.0363mWRMumbai 400008, Maharashtra
2DDRMumbai Dadar Western (6)X  12:28 12:25-12:30-2 5m515.9306mWRMumbai, Maharashtra
3ADHMumbai Andheri (9)  12:52-12:54-2m8117.14412mWRMumbai, Maharashtra
4BVIMumbai Borivali (8)X  13:18 13:11-13:20-2 9m6129.73519mWRMumbai - 400092, Maharashtra
5BSRVasai Road (7)  13:50-13:52-2m4147.1467mWRVasai 401202, Maharashtra
6VRVirar (8)X  14:03-14:05-2m3155.5436mWRDist. Palghar, Maharashtra
7VTNVaitarna (2)  14:16 14:17-14:18-2 1m1164.0583mWRDist. Palghar, Maharashtra
8SAHSaphale (2)X  14:25 14:26-14:27-2 1m1171.8648mWRDist. Palghar, Maharashtra
9KLVKelve Road (3)  14:32 14:33-14:34-2 1m2178.27210mWRDist. Palghar, Maharashtra
10PLGPalghar (3)X  14:41-14:43-2m1186.65619mWRPalghar, Maharashtra
11BORBoisar (3)XO  14:55-14:57-2m1197.91817mWRBoisar Tel.no-02525-266626, Maharashtra
12VGNVangaon (3)XO  15:28 15:29-15:30-2 1m--1107.35311mWRDist. Palghar, Maharashtra
13DRDDahanu Road (5)X  15:44-15:46-2m11119.66112mWRDahanu, Maharashtra
14GVDGholvad (4)  15:56 15:57-15:58-2 1m--1130.86114mWRGholvad, Maharashtra
15UBRUmbargam Road (3)XO  16:07-16:09-2m11139.92730mWRUmbergaon, Gujarat
16SJNSanjan (3)X  16:20 16:21-16:22-2 1m--1145.35822mWRSanjan, Gujarat
17BLDBhilad (3)X  16:33 16:34-16:35-2 1m--1156.94833mWRBhilad, Gujarat
18KEBKarambeli (2)O  16:40 16:41-16:42-2 1m--1161.72429mWRNational Highway 8, Gujarat
19VAPIVapi (3)X  16:58-17:00-2m11168.15027mWRVapi, Gujarat
20BAGDBagwada (2)O  17:08-17:09-1m--1174.83522mWRNH8, Gujarat
21UVDUdvada (3)X  17:13 17:14-17:15-2 1m--1177.76018mWRUdvada, Gujarat
22PADPardi (3)X  17:20 17:21-17:22-2 1m--1183.74819mWRValsad, Gujarat
23ATULAtul (3)•  17:26 17:27-17:28-2 1m--1187.72922mWRValsad, Gujarat
24BLValsad (3)XO  17:42-18:00-18m21194.45915mWRValsad, Gujarat
25DGIDungri (3)  18:08 18:09-18:10-2 1m11203.35120mWRNH 8, Gujarat
26JRSJoravasan (2)  18:15 18:16-18:17-2 1m11208.47915mWRJoravasan, Gujarat
27BIMBilimora Junction (4)XO  18:23 18:20-18:25-2 5m--1212.31811mWRBilimora, Gujarat
28AMLAmalsad (3)  18:44-18:46-2m--1217.93812mWRAmalsad, Gujarat
29ACLAncheli (2)O  18:51 18:52-18:53-2 1m--1221.73420mWRNavsari, Gujarat
30VDHVedchha (3)XO  18:59-19:01-2m--1225.12313mWRNavsari, Gujarat
31NVSNavsari (3)X  19:23-19:25-2m31233.55114mWRNavsari, Gujarat
32MRLMaroli (3)XO  19:35-19:37-2m--1241.92515mWRMaroli, Gujarat
33SCHSachin (3)X  19:52 19:53-19:54-2 1m11248.64311mWRKansad Road Sachin, Gujarat
34BHETBhestan (2)  20:01 20:02-20:03-2 1m11254.32613mWRSurat, Gujarat
35UDNUdhna Junction (3)XO  20:14-20:16-2m11259.1716mWRUdhna 394210, Gujarat
36STSurat (4)XO  20:49-21:09-20m21263.13919mWRSurat 395001, Gujarat
37URNUtran (3)  21:15-21:17-2m--1267.06415mWRSurat, Gujarat
38KSEKosad (2)  21:20-21:22-2m--1270.13717mWRSurat, Gujarat
39GTXGothangam (2)XO  21:28-21:30 21:29-2 1m--1273.81819mWRAmroli Sayan Rd, Gujarat
40SYNSayan (3)O  21:39-21:41 21:40-2 1m--1276.85021mWRSayan Satellite town, Gujarat
41KIMKim (2)  21:52-21:54 21:53-2 1m--1286.75218mWRNH 8, Gujarat
42KSBKosamba Junction (3)X  22:02-22:04 22:03-2 1m--1294.53730mWRKosamba, Gujarat
43HATHathuran (2)O  22:08 22:10-22:10 22:11-2 1m--1298.93932mWRKosamba, Gujarat
44PAOPanoli (3)X  22:15 22:17-22:17 22:18-2 1m--1302.74429mWRPanoli, Gujarat
45AKVAnkleshwar Junction (4)  22:34 22:32-22:36 22:33-2 1m21313.04719mWRAnkleshwar, Gujarat
46BHBharuch Junction (5)  22:50 22:45-22:52 22:47-2m31322.45619mWRBharuch, Gujarat
47NIUNabipur (3)X  23:03 23:00-23:05 23:02-2m--1334.45124mWRNabipur, Gujarat
48VREVarediya (4)X  23:12 23:10-23:14 23:11-2 1m--1341.25721mWRNH 8, Gujarat
49PLJPalej (4)O  23:20 23:18-23:22 23:19-2 1m--1347.83829mWRPalej, Gujarat
50MYGMiyagam Karjan (2)X  23:43-23:45-2m21363.06329mWRKarjan, Gujarat
51ITAItola (4)X  23:56-23:58-2m--1374.63027mWRNational Highway 8 Vadodara, Gujarat
52BRCVadodara Junction (7)X  00:40 00:35-00:50 00:45-10m--2392.93136mWRVadodara 390005, Gujarat
53BJWBajva (3)X  01:04 00:59-01:06 01:01-2m--2400.12338mWRVadodara, Gujarat
54RNORanoli (2)  01:16 01:11-01:18 01:13-2m--2403.98339mWRVadodara District, Gujarat
55NDRNandesari (2)  01:21 01:16-01:23 01:18-2m--2408.16042mWRNandesari, Gujarat
56VDAVasad Junction (3)XO  01:28 01:23-01:30 01:25-2m--2413.12540mWRVasad, Gujarat
57ADDAdas Road (4)X  01:36-01:38 01:37-2 1m--2417.73542mWRNational Highway 8, Gujarat
58VXDVadod (3)  01:44-01:46 01:45-2 1m--2421.83744mWRAnand District, Gujarat
59ANNDAnand Junction (6)X  02:03 01:56-02:08 02:01-5m--2428.63444mWRAnand, Gujarat
60KBRVKanjari Boriyavi Junction (4)X  02:14-02:16 02:15-2 1m--2436.14139mWRKanjari, Gujarat
61UTDUtarsanda (4)O  02:23-02:25 02:24-2 1m--2441.62240mWRUttarsanda, Gujarat
62NDNadiad Junction (4)XO  02:35 02:39-02:43 02:44-8 5m--2447.14037mWRNadiad, Gujarat
63GTEGothaj (2)X  02:52 02:58-02:54 02:59-2 1m--2456.35532mWRState Highway 3, Gujarat
64MHDMahemdavad Kheda Road (4)X  03:12 03:08-03:14 03:09-2 1m--2464.65037mWRMahemdavad, Gujarat
65NEPNenpur (2)X  03:19 03:14-03:21 03:16-2m--2468.82935mWRState Highway 3, Gujarat
66KANJKanij (3)  03:26 03:22-03:28 03:23-2 1m--2471.72239mWRBareja-Barejadi Rd, Gujarat
67BJDBarejadi Nandej (3)X  03:36 03:35-03:38 03:36-2 1m--2476.02242mWRBareja-Barejadi Rd, Gujarat
68GERGeratpur (2)X  03:52 03:45-03:54 03:46-2 1m--2479.47944mWRAhmadabad, Gujarat
69VTAVatva (4)X  03:58 03:50-04:00 03:52-2m--2484.64849mWRDist. Ahmedabad 382445, Gujarat
70MANManinagar (2)O  04:06 03:58-04:08 04:00-2m12489.5550mWRAhmadabad, Gujarat
71ADIAhmedabad Junction (12)  04:25 04:35--42492.6-51mWRAhmedabad, Gujarat
Scroll to Top
Scroll to Bottom